Main page
METAR-TAF:

METAR-TAF

Airports :

Blackpool Airport

Blackpool, England

latitude: 53-46N, longitude: 003-02W, elevation: 10 m

Current weather observation

The report was made 41 minutes ago, at 17:20 UTC
Wind 7 kt from the North/Northwest
Temperature 16°C
Humidity 82%
Pressure 1016 hPa
Visibility 10 km or more
no clouds below 1500 m and no cumulonimbus

METAR: EGNH 211720Z 33007KT CAVOK 16/13 Q1016

Time: 19:01 (18:01 UTC)

Forecast

The report was made 57 minutes ago, at 17:04 UTC
Forecast valid from 21 at 18 UTC to 21 at 20 UTC
Wind 7 kt from the West/Northwest
Visibility 10 km or more
no clouds below 1500 m and no cumulonimbus
Probability 30% :
Temporary
from 21 at 18 UTC to 21 at 20 UTC
Broken clouds at a height of 800 ft

TAF: EGNH 211704Z 2118/2120 30007KT CAVOK PROB30 TEMPO 2118/2120 BKN008

Weather observations and forecasts of more than 4000 airports (METAR and TAF reports).

The available stations are represented by yellow and red dots on the map.

Hover mouse over dot to see the name of the station.

Then click to see weather observations and forecasts.

To change the map : click on the green buttons with a black cross to zoom in, on the green button with a dash to zoom out, or on the green arrows for adjacent maps.


METAR-TAF: